sensor_id;sensor_type;location;lat;lon;timestamp;P1;durP1;ratioP1;P2;durP2;ratioP2
53411;SDS011;39307;52.870;13.660;2023-07-20T00:00:39;4.65;;;2.80;;
53411;SDS011;39307;52.870;13.660;2023-07-20T00:03:14;5.57;;;2.65;;
53411;SDS011;39307;52.870;13.660;2023-07-20T00:05:41;6.57;;;2.80;;
53411;SDS011;39307;52.870;13.660;2023-07-20T00:08:08;5.37;;;2.87;;
53411;SDS011;39307;52.870;13.660;2023-07-20T00:10:34;4.83;;;2.80;;
53411;SDS011;39307;52.870;13.660;2023-07-20T00:13:00;4.87;;;2.53;;
53411;SDS011;39307;52.870;13.660;2023-07-20T00:15:27;6.07;;;2.85;;
53411;SDS011;39307;52.870;13.660;2023-07-20T00:17:53;5.43;;;2.90;;
53411;SDS011;39307;52.870;13.660;2023-07-20T00:20:19;4.25;;;2.53;;
53411;SDS011;39307;52.870;13.660;2023-07-20T00:22:45;5.57;;;2.72;;
53411;SDS011;39307;52.870;13.660;2023-07-20T00:25:12;4.95;;;2.67;;
53411;SDS011;39307;52.870;13.660;2023-07-20T00:27:38;4.07;;;2.55;;
53411;SDS011;39307;52.870;13.660;2023-07-20T00:30:04;6.07;;;2.78;;
53411;SDS011;39307;52.870;13.660;2023-07-20T00:32:31;4.30;;;2.65;;
53411;SDS011;39307;52.870;13.660;2023-07-20T00:34:57;4.68;;;2.70;;
53411;SDS011;39307;52.870;13.660;2023-07-20T00:37:23;6.20;;;2.83;;
53411;SDS011;39307;52.870;13.660;2023-07-20T00:39:50;5.00;;;2.63;;
53411;SDS011;39307;52.870;13.660;2023-07-20T00:42:17;4.65;;;2.50;;
53411;SDS011;39307;52.870;13.660;2023-07-20T00:44:43;5.05;;;2.83;;
53411;SDS011;39307;52.870;13.660;2023-07-20T00:47:09;5.13;;;2.90;;
53411;SDS011;39307;52.870;13.660;2023-07-20T00:49:36;5.40;;;2.90;;
53411;SDS011;39307;52.870;13.660;2023-07-20T00:52:03;5.32;;;2.95;;
53411;SDS011;39307;52.870;13.660;2023-07-20T00:54:34;4.73;;;2.60;;
53411;SDS011;39307;52.870;13.660;2023-07-20T00:57:00;6.38;;;3.13;;
53411;SDS011;39307;52.870;13.660;2023-07-20T00:59:27;5.40;;;2.50;;
53411;SDS011;39307;52.870;13.660;2023-07-20T01:01:54;4.70;;;2.70;;
53411;SDS011;39307;52.870;13.660;2023-07-20T01:04:21;7.32;;;2.78;;
53411;SDS011;39307;52.870;13.660;2023-07-20T01:06:56;4.78;;;3.20;;
53411;SDS011;39307;52.870;13.660;2023-07-20T01:09:26;5.50;;;3.20;;
53411;SDS011;39307;52.870;13.660;2023-07-20T01:12:02;6.70;;;3.13;;
53411;SDS011;39307;52.870;13.660;2023-07-20T01:14:39;5.47;;;3.35;;
53411;SDS011;39307;52.870;13.660;2023-07-20T01:17:06;10.07;;;3.30;;
53411;SDS011;39307;52.870;13.660;2023-07-20T01:19:32;6.18;;;3.30;;
53411;SDS011;39307;52.870;13.660;2023-07-20T01:24:56;5.50;;;3.40;;
53411;SDS011;39307;52.870;13.660;2023-07-20T01:33:26;5.85;;;3.05;;
53411;SDS011;39307;52.870;13.660;2023-07-20T01:35:57;5.47;;;3.17;;
53411;SDS011;39307;52.870;13.660;2023-07-20T01:38:25;5.47;;;3.28;;
53411;SDS011;39307;52.870;13.660;2023-07-20T01:40:52;4.57;;;3.03;;
53411;SDS011;39307;52.870;13.660;2023-07-20T01:43:18;7.05;;;3.50;;
53411;SDS011;39307;52.870;13.660;2023-07-20T01:45:45;6.38;;;3.33;;
53411;SDS011;39307;52.870;13.660;2023-07-20T01:48:11;6.10;;;3.40;;
53411;SDS011;39307;52.870;13.660;2023-07-20T01:50:37;8.80;;;3.40;;
53411;SDS011;39307;52.870;13.660;2023-07-20T01:53:03;7.93;;;3.38;;
53411;SDS011;39307;52.870;13.660;2023-07-20T01:55:30;6.18;;;3.25;;
53411;SDS011;39307;52.870;13.660;2023-07-20T01:57:56;6.03;;;3.50;;
53411;SDS011;39307;52.870;13.660;2023-07-20T02:00:23;6.53;;;3.55;;
53411;SDS011;39307;52.870;13.660;2023-07-20T02:02:49;6.07;;;3.30;;
53411;SDS011;39307;52.870;13.660;2023-07-20T02:05:16;6.55;;;3.55;;
53411;SDS011;39307;52.870;13.660;2023-07-20T02:07:43;6.90;;;3.70;;
53411;SDS011;39307;52.870;13.660;2023-07-20T02:10:09;5.75;;;3.10;;
53411;SDS011;39307;52.870;13.660;2023-07-20T02:12:35;8.10;;;3.90;;
53411;SDS011;39307;52.870;13.660;2023-07-20T02:15:02;7.65;;;5.40;;
53411;SDS011;39307;52.870;13.660;2023-07-20T02:17:29;8.25;;;5.07;;
53411;SDS011;39307;52.870;13.660;2023-07-20T02:19:55;7.82;;;5.18;;
53411;SDS011;39307;52.870;13.660;2023-07-20T02:22:22;7.73;;;5.50;;
53411;SDS011;39307;52.870;13.660;2023-07-20T02:24:49;7.80;;;5.68;;
53411;SDS011;39307;52.870;13.660;2023-07-20T02:27:15;8.15;;;6.32;;
53411;SDS011;39307;52.870;13.660;2023-07-20T02:29:42;9.93;;;7.30;;
53411;SDS011;39307;52.870;13.660;2023-07-20T02:32:08;8.73;;;6.50;;
53411;SDS011;39307;52.870;13.660;2023-07-20T02:34:35;8.95;;;6.57;;
53411;SDS011;39307;52.870;13.660;2023-07-20T02:37:01;11.43;;;7.55;;
53411;SDS011;39307;52.870;13.660;2023-07-20T02:39:27;9.23;;;7.03;;
53411;SDS011;39307;52.870;13.660;2023-07-20T02:41:54;12.05;;;7.60;;
53411;SDS011;39307;52.870;13.660;2023-07-20T02:44:20;10.13;;;7.57;;
53411;SDS011;39307;52.870;13.660;2023-07-20T02:46:46;10.65;;;7.68;;
53411;SDS011;39307;52.870;13.660;2023-07-20T02:49:13;10.07;;;7.68;;
53411;SDS011;39307;52.870;13.660;2023-07-20T02:51:39;11.38;;;7.80;;
53411;SDS011;39307;52.870;13.660;2023-07-20T02:54:05;10.10;;;7.40;;
53411;SDS011;39307;52.870;13.660;2023-07-20T02:56:31;11.60;;;7.90;;
53411;SDS011;39307;52.870;13.660;2023-07-20T02:58:58;9.45;;;7.22;;
53411;SDS011;39307;52.870;13.660;2023-07-20T03:01:24;9.63;;;6.97;;
53411;SDS011;39307;52.870;13.660;2023-07-20T03:03:50;10.75;;;7.35;;
53411;SDS011;39307;52.870;13.660;2023-07-20T03:06:16;10.50;;;7.40;;
53411;SDS011;39307;52.870;13.660;2023-07-20T03:08:43;10.50;;;7.63;;
53411;SDS011;39307;52.870;13.660;2023-07-20T03:11:09;10.55;;;7.55;;
53411;SDS011;39307;52.870;13.660;2023-07-20T03:13:35;11.15;;;7.43;;
53411;SDS011;39307;52.870;13.660;2023-07-20T03:16:01;9.50;;;7.00;;
53411;SDS011;39307;52.870;13.660;2023-07-20T03:18:28;10.25;;;6.90;;
53411;SDS011;39307;52.870;13.660;2023-07-20T03:20:54;10.05;;;6.97;;
53411;SDS011;39307;52.870;13.660;2023-07-20T03:23:20;9.48;;;6.88;;
53411;SDS011;39307;52.870;13.660;2023-07-20T03:25:46;9.93;;;7.50;;
53411;SDS011;39307;52.870;13.660;2023-07-20T03:28:13;9.80;;;7.53;;
53411;SDS011;39307;52.870;13.660;2023-07-20T03:30:39;12.27;;;8.25;;
53411;SDS011;39307;52.870;13.660;2023-07-20T03:33:05;10.73;;;8.00;;
53411;SDS011;39307;52.870;13.660;2023-07-20T03:35:31;11.10;;;8.27;;
53411;SDS011;39307;52.870;13.660;2023-07-20T03:37:57;10.40;;;7.57;;
53411;SDS011;39307;52.870;13.660;2023-07-20T03:40:24;11.15;;;8.32;;
53411;SDS011;39307;52.870;13.660;2023-07-20T03:42:50;10.07;;;7.80;;
53411;SDS011;39307;52.870;13.660;2023-07-20T03:45:16;11.40;;;7.68;;
53411;SDS011;39307;52.870;13.660;2023-07-20T03:47:42;11.02;;;8.25;;
53411;SDS011;39307;52.870;13.660;2023-07-20T03:50:09;12.43;;;7.82;;
53411;SDS011;39307;52.870;13.660;2023-07-20T03:52:35;13.10;;;8.15;;
53411;SDS011;39307;52.870;13.660;2023-07-20T03:55:01;8.85;;;6.07;;
53411;SDS011;39307;52.870;13.660;2023-07-20T03:57:28;7.37;;;5.20;;
53411;SDS011;39307;52.870;13.660;2023-07-20T03:59:54;7.82;;;5.05;;
53411;SDS011;39307;52.870;13.660;2023-07-20T04:02:20;8.07;;;4.95;;
53411;SDS011;39307;52.870;13.660;2023-07-20T04:04:46;8.35;;;5.07;;
53411;SDS011;39307;52.870;13.660;2023-07-20T04:07:13;7.30;;;4.75;;
53411;SDS011;39307;52.870;13.660;2023-07-20T04:09:39;6.47;;;4.65;;
53411;SDS011;39307;52.870;13.660;2023-07-20T04:12:05;8.02;;;5.38;;
53411;SDS011;39307;52.870;13.660;2023-07-20T04:14:32;7.43;;;5.18;;
53411;SDS011;39307;52.870;13.660;2023-07-20T04:16:58;6.85;;;4.85;;
53411;SDS011;39307;52.870;13.660;2023-07-20T04:19:24;6.50;;;4.85;;
53411;SDS011;39307;52.870;13.660;2023-07-20T04:21:51;6.53;;;4.70;;
53411;SDS011;39307;52.870;13.660;2023-07-20T04:24:17;8.10;;;4.73;;
53411;SDS011;39307;52.870;13.660;2023-07-20T04:26:43;6.90;;;4.53;;
53411;SDS011;39307;52.870;13.660;2023-07-20T04:29:09;6.10;;;4.00;;
53411;SDS011;39307;52.870;13.660;2023-07-20T04:31:36;6.13;;;3.93;;
53411;SDS011;39307;52.870;13.660;2023-07-20T04:34:02;6.17;;;4.17;;
53411;SDS011;39307;52.870;13.660;2023-07-20T04:36:28;7.10;;;4.33;;
53411;SDS011;39307;52.870;13.660;2023-07-20T04:38:54;6.85;;;4.20;;
53411;SDS011;39307;52.870;13.660;2023-07-20T04:41:20;5.75;;;3.80;;
53411;SDS011;39307;52.870;13.660;2023-07-20T04:43:46;5.45;;;3.30;;
53411;SDS011;39307;52.870;13.660;2023-07-20T04:46:13;5.30;;;3.10;;
53411;SDS011;39307;52.870;13.660;2023-07-20T04:48:39;5.18;;;3.33;;
53411;SDS011;39307;52.870;13.660;2023-07-20T04:51:05;4.88;;;3.30;;
53411;SDS011;39307;52.870;13.660;2023-07-20T04:53:31;5.60;;;3.47;;
53411;SDS011;39307;52.870;13.660;2023-07-20T04:55:58;5.65;;;3.38;;
53411;SDS011;39307;52.870;13.660;2023-07-20T04:58:24;4.80;;;3.15;;
53411;SDS011;39307;52.870;13.660;2023-07-20T05:00:51;5.37;;;3.33;;
53411;SDS011;39307;52.870;13.660;2023-07-20T05:03:17;6.20;;;4.18;;
53411;SDS011;39307;52.870;13.660;2023-07-20T05:05:43;6.57;;;4.00;;
53411;SDS011;39307;52.870;13.660;2023-07-20T05:08:10;6.25;;;4.03;;
53411;SDS011;39307;52.870;13.660;2023-07-20T05:10:36;6.25;;;4.15;;
53411;SDS011;39307;52.870;13.660;2023-07-20T05:13:02;7.32;;;4.22;;
53411;SDS011;39307;52.870;13.660;2023-07-20T05:15:28;6.40;;;4.63;;
53411;SDS011;39307;52.870;13.660;2023-07-20T05:17:55;8.23;;;4.35;;
53411;SDS011;39307;52.870;13.660;2023-07-20T05:20:21;7.88;;;4.72;;
53411;SDS011;39307;52.870;13.660;2023-07-20T05:22:47;6.80;;;4.53;;
53411;SDS011;39307;52.870;13.660;2023-07-20T05:25:13;8.65;;;5.13;;
53411;SDS011;39307;52.870;13.660;2023-07-20T05:27:40;6.43;;;4.55;;
53411;SDS011;39307;52.870;13.660;2023-07-20T05:30:06;6.28;;;4.55;;
53411;SDS011;39307;52.870;13.660;2023-07-20T05:32:33;6.40;;;4.60;;
53411;SDS011;39307;52.870;13.660;2023-07-20T05:34:59;6.68;;;4.72;;
53411;SDS011;39307;52.870;13.660;2023-07-20T05:37:25;8.02;;;4.63;;
53411;SDS011;39307;52.870;13.660;2023-07-20T05:39:52;6.90;;;4.80;;
53411;SDS011;39307;52.870;13.660;2023-07-20T05:42:18;5.78;;;4.47;;
53411;SDS011;39307;52.870;13.660;2023-07-20T05:44:44;6.82;;;4.60;;
53411;SDS011;39307;52.870;13.660;2023-07-20T05:47:10;6.32;;;4.60;;
53411;SDS011;39307;52.870;13.660;2023-07-20T05:49:37;6.68;;;4.65;;
53411;SDS011;39307;52.870;13.660;2023-07-20T05:52:03;7.57;;;5.10;;
53411;SDS011;39307;52.870;13.660;2023-07-20T05:54:29;7.85;;;5.18;;
53411;SDS011;39307;52.870;13.660;2023-07-20T05:56:55;11.23;;;4.80;;
53411;SDS011;39307;52.870;13.660;2023-07-20T05:59:22;7.50;;;4.65;;
53411;SDS011;39307;52.870;13.660;2023-07-20T06:01:48;7.40;;;4.87;;
53411;SDS011;39307;52.870;13.660;2023-07-20T06:04:14;6.87;;;4.90;;
53411;SDS011;39307;52.870;13.660;2023-07-20T06:06:41;7.13;;;4.80;;
53411;SDS011;39307;52.870;13.660;2023-07-20T06:09:07;7.90;;;5.00;;
53411;SDS011;39307;52.870;13.660;2023-07-20T06:11:34;6.40;;;4.65;;
53411;SDS011;39307;52.870;13.660;2023-07-20T06:14:00;6.30;;;4.50;;
53411;SDS011;39307;52.870;13.660;2023-07-20T06:16:26;8.18;;;4.68;;
53411;SDS011;39307;52.870;13.660;2023-07-20T06:18:52;10.10;;;4.65;;
53411;SDS011;39307;52.870;13.660;2023-07-20T06:21:19;7.03;;;4.75;;
53411;SDS011;39307;52.870;13.660;2023-07-20T06:23:45;6.75;;;4.93;;
53411;SDS011;39307;52.870;13.660;2023-07-20T06:26:11;6.55;;;4.35;;
53411;SDS011;39307;52.870;13.660;2023-07-20T06:28:37;6.68;;;4.22;;
53411;SDS011;39307;52.870;13.660;2023-07-20T06:31:04;7.05;;;4.00;;
53411;SDS011;39307;52.870;13.660;2023-07-20T06:33:30;5.80;;;3.60;;
53411;SDS011;39307;52.870;13.660;2023-07-20T06:35:57;6.70;;;3.23;;
53411;SDS011;39307;52.870;13.660;2023-07-20T06:38:23;5.07;;;3.20;;
53411;SDS011;39307;52.870;13.660;2023-07-20T06:40:50;4.70;;;2.72;;
53411;SDS011;39307;52.870;13.660;2023-07-20T06:43:16;4.53;;;2.60;;
53411;SDS011;39307;52.870;13.660;2023-07-20T06:45:43;5.78;;;2.50;;
53411;SDS011;39307;52.870;13.660;2023-07-20T06:48:09;5.53;;;2.33;;
53411;SDS011;39307;52.870;13.660;2023-07-20T06:50:35;5.68;;;2.30;;
53411;SDS011;39307;52.870;13.660;2023-07-20T06:53:01;5.03;;;2.10;;
53411;SDS011;39307;52.870;13.660;2023-07-20T06:55:28;5.15;;;2.60;;
53411;SDS011;39307;52.870;13.660;2023-07-20T06:57:54;3.97;;;1.95;;
53411;SDS011;39307;52.870;13.660;2023-07-20T07:00:20;3.80;;;1.80;;
53411;SDS011;39307;52.870;13.660;2023-07-20T07:02:46;3.95;;;1.60;;
53411;SDS011;39307;52.870;13.660;2023-07-20T07:05:13;4.28;;;1.75;;
53411;SDS011;39307;52.870;13.660;2023-07-20T07:07:39;3.53;;;1.70;;
53411;SDS011;39307;52.870;13.660;2023-07-20T07:10:08;5.32;;;1.90;;
53411;SDS011;39307;52.870;13.660;2023-07-20T07:12:35;3.63;;;1.80;;
53411;SDS011;39307;52.870;13.660;2023-07-20T07:15:04;4.30;;;1.80;;
53411;SDS011;39307;52.870;13.660;2023-07-20T07:17:31;4.40;;;1.50;;
53411;SDS011;39307;52.870;13.660;2023-07-20T07:19:57;2.40;;;1.23;;
53411;SDS011;39307;52.870;13.660;2023-07-20T07:22:23;3.47;;;1.10;;
53411;SDS011;39307;52.870;13.660;2023-07-20T07:24:50;2.55;;;1.00;;
53411;SDS011;39307;52.870;13.660;2023-07-20T07:27:16;2.30;;;1.10;;
53411;SDS011;39307;52.870;13.660;2023-07-20T07:29:42;4.05;;;1.50;;
53411;SDS011;39307;52.870;13.660;2023-07-20T07:32:09;2.57;;;1.00;;
53411;SDS011;39307;52.870;13.660;2023-07-20T07:34:35;4.57;;;1.27;;
53411;SDS011;39307;52.870;13.660;2023-07-20T07:37:02;4.35;;;1.60;;
53411;SDS011;39307;52.870;13.660;2023-07-20T07:39:30;7.10;;;1.50;;
53411;SDS011;39307;52.870;13.660;2023-07-20T07:41:58;3.65;;;1.40;;
53411;SDS011;39307;52.870;13.660;2023-07-20T07:44:25;13.57;;;2.35;;
53411;SDS011;39307;52.870;13.660;2023-07-20T07:46:52;10.38;;;1.70;;
53411;SDS011;39307;52.870;13.660;2023-07-20T07:49:18;10.98;;;1.75;;
53411;SDS011;39307;52.870;13.660;2023-07-20T07:51:44;15.70;;;2.20;;
53411;SDS011;39307;52.870;13.660;2023-07-20T07:54:11;12.85;;;1.83;;
53411;SDS011;39307;52.870;13.660;2023-07-20T07:56:37;12.37;;;1.40;;
53411;SDS011;39307;52.870;13.660;2023-07-20T07:59:03;4.63;;;1.00;;
53411;SDS011;39307;52.870;13.660;2023-07-20T08:01:30;3.30;;;0.80;;
53411;SDS011;39307;52.870;13.660;2023-07-20T08:03:56;3.90;;;0.90;;
53411;SDS011;39307;52.870;13.660;2023-07-20T08:06:22;3.47;;;0.95;;
53411;SDS011;39307;52.870;13.660;2023-07-20T08:08:48;4.30;;;0.98;;
53411;SDS011;39307;52.870;13.660;2023-07-20T08:11:14;3.13;;;0.73;;
53411;SDS011;39307;52.870;13.660;2023-07-20T08:13:41;1.70;;;0.45;;
53411;SDS011;39307;52.870;13.660;2023-07-20T08:16:07;3.25;;;0.60;;
53411;SDS011;39307;52.870;13.660;2023-07-20T08:18:33;3.00;;;0.68;;
53411;SDS011;39307;52.870;13.660;2023-07-20T08:21:00;5.80;;;0.90;;
53411;SDS011;39307;52.870;13.660;2023-07-20T08:23:26;5.22;;;0.68;;
53411;SDS011;39307;52.870;13.660;2023-07-20T08:25:53;15.98;;;1.45;;
53411;SDS011;39307;52.870;13.660;2023-07-20T08:28:19;14.52;;;1.73;;
53411;SDS011;39307;52.870;13.660;2023-07-20T08:30:46;5.60;;;0.98;;
53411;SDS011;39307;52.870;13.660;2023-07-20T08:33:13;2.53;;;0.50;;
53411;SDS011;39307;52.870;13.660;2023-07-20T08:35:40;4.00;;;0.73;;
53411;SDS011;39307;52.870;13.660;2023-07-20T08:38:08;4.90;;;0.83;;
53411;SDS011;39307;52.870;13.660;2023-07-20T08:40:39;7.28;;;0.80;;
53411;SDS011;39307;52.870;13.660;2023-07-20T08:43:11;4.22;;;0.80;;
53411;SDS011;39307;52.870;13.660;2023-07-20T08:45:41;3.22;;;0.60;;
53411;SDS011;39307;52.870;13.660;2023-07-20T08:48:11;1.87;;;0.40;;
53411;SDS011;39307;52.870;13.660;2023-07-20T08:50:38;3.47;;;0.68;;
53411;SDS011;39307;52.870;13.660;2023-07-20T08:53:06;1.88;;;0.52;;
53411;SDS011;39307;52.870;13.660;2023-07-20T08:55:34;3.42;;;0.70;;
53411;SDS011;39307;52.870;13.660;2023-07-20T08:58:01;1.55;;;0.50;;
53411;SDS011;39307;52.870;13.660;2023-07-20T09:00:28;1.27;;;0.55;;
53411;SDS011;39307;52.870;13.660;2023-07-20T09:02:55;1.10;;;0.50;;
53411;SDS011;39307;52.870;13.660;2023-07-20T09:05:22;1.05;;;0.50;;
53411;SDS011;39307;52.870;13.660;2023-07-20T09:07:51;1.00;;;0.50;;
53411;SDS011;39307;52.870;13.660;2023-07-20T09:10:20;1.80;;;0.45;;
53411;SDS011;39307;52.870;13.660;2023-07-20T09:12:49;1.38;;;0.50;;
53411;SDS011;39307;52.870;13.660;2023-07-20T09:15:15;1.37;;;0.50;;
53411;SDS011;39307;52.870;13.660;2023-07-20T09:17:51;2.25;;;0.65;;
53411;SDS011;39307;52.870;13.660;2023-07-20T09:20:18;8.40;;;0.65;;
53411;SDS011;39307;52.870;13.660;2023-07-20T09:22:46;1.50;;;0.55;;
53411;SDS011;39307;52.870;13.660;2023-07-20T09:25:13;0.50;;;0.40;;
53411;SDS011;39307;52.870;13.660;2023-07-20T09:27:44;1.75;;;0.55;;
53411;SDS011;39307;52.870;13.660;2023-07-20T09:30:14;1.17;;;0.57;;
53411;SDS011;39307;52.870;13.660;2023-07-20T09:32:45;2.17;;;0.68;;
53411;SDS011;39307;52.870;13.660;2023-07-20T09:35:13;1.55;;;0.60;;
53411;SDS011;39307;52.870;13.660;2023-07-20T09:37:41;1.48;;;0.60;;
53411;SDS011;39307;52.870;13.660;2023-07-20T09:40:16;3.10;;;0.60;;
53411;SDS011;39307;52.870;13.660;2023-07-20T09:42:43;1.20;;;0.60;;
53411;SDS011;39307;52.870;13.660;2023-07-20T09:45:10;2.88;;;0.80;;
53411;SDS011;39307;52.870;13.660;2023-07-20T09:47:36;1.35;;;0.63;;
53411;SDS011;39307;52.870;13.660;2023-07-20T09:50:03;2.40;;;0.88;;
53411;SDS011;39307;52.870;13.660;2023-07-20T09:52:31;5.15;;;0.80;;
53411;SDS011;39307;52.870;13.660;2023-07-20T09:54:57;1.27;;;0.63;;
53411;SDS011;39307;52.870;13.660;2023-07-20T09:57:23;1.52;;;0.70;;
53411;SDS011;39307;52.870;13.660;2023-07-20T09:59:51;2.03;;;0.73;;
53411;SDS011;39307;52.870;13.660;2023-07-20T10:02:21;2.50;;;0.75;;
53411;SDS011;39307;52.870;13.660;2023-07-20T10:04:52;2.70;;;0.82;;
53411;SDS011;39307;52.870;13.660;2023-07-20T10:07:20;2.00;;;0.80;;
53411;SDS011;39307;52.870;13.660;2023-07-20T10:09:48;2.20;;;0.60;;
53411;SDS011;39307;52.870;13.660;2023-07-20T10:12:17;3.95;;;0.70;;
53411;SDS011;39307;52.870;13.660;2023-07-20T10:14:51;1.52;;;0.60;;
53411;SDS011;39307;52.870;13.660;2023-07-20T10:17:33;0.85;;;0.60;;
53411;SDS011;39307;52.870;13.660;2023-07-20T10:20:03;1.35;;;0.63;;
53411;SDS011;39307;52.870;13.660;2023-07-20T10:22:32;1.10;;;0.65;;
53411;SDS011;39307;52.870;13.660;2023-07-20T10:25:02;2.10;;;0.70;;
53411;SDS011;39307;52.870;13.660;2023-07-20T10:27:30;17.67;;;2.00;;
53411;SDS011;39307;52.870;13.660;2023-07-20T10:29:57;4.07;;;0.80;;
53411;SDS011;39307;52.870;13.660;2023-07-20T10:32:23;2.83;;;0.90;;
53411;SDS011;39307;52.870;13.660;2023-07-20T10:34:51;3.22;;;0.93;;
53411;SDS011;39307;52.870;13.660;2023-07-20T10:40:37;1.70;;;0.80;;
53411;SDS011;39307;52.870;13.660;2023-07-20T10:43:06;1.33;;;0.70;;
53411;SDS011;39307;52.870;13.660;2023-07-20T10:45:49;14.00;;;1.80;;
53411;SDS011;39307;52.870;13.660;2023-07-20T10:48:19;1.70;;;0.80;;
53411;SDS011;39307;52.870;13.660;2023-07-20T10:53:35;1.95;;;0.70;;
53411;SDS011;39307;52.870;13.660;2023-07-20T10:56:11;2.17;;;0.80;;
53411;SDS011;39307;52.870;13.660;2023-07-20T10:58:39;3.55;;;0.85;;
53411;SDS011;39307;52.870;13.660;2023-07-20T11:01:06;1.52;;;0.70;;
53411;SDS011;39307;52.870;13.660;2023-07-20T11:03:42;1.33;;;0.80;;
53411;SDS011;39307;52.870;13.660;2023-07-20T11:08:56;1.60;;;0.80;;
53411;SDS011;39307;52.870;13.660;2023-07-20T11:11:26;1.20;;;0.80;;
53411;SDS011;39307;52.870;13.660;2023-07-20T11:14:00;1.70;;;0.70;;
53411;SDS011;39307;52.870;13.660;2023-07-20T11:16:33;2.72;;;1.00;;
53411;SDS011;39307;52.870;13.660;2023-07-20T11:19:04;1.90;;;0.90;;
53411;SDS011;39307;52.870;13.660;2023-07-20T11:21:38;2.80;;;1.10;;
53411;SDS011;39307;52.870;13.660;2023-07-20T11:24:05;2.58;;;0.98;;
53411;SDS011;39307;52.870;13.660;2023-07-20T11:26:53;2.92;;;1.08;;
53411;SDS011;39307;52.870;13.660;2023-07-20T11:29:20;13.25;;;1.60;;
53411;SDS011;39307;52.870;13.660;2023-07-20T11:31:48;6.63;;;1.45;;
53411;SDS011;39307;52.870;13.660;2023-07-20T11:34:16;1.70;;;0.80;;
53411;SDS011;39307;52.870;13.660;2023-07-20T11:36:47;1.52;;;0.70;;
53411;SDS011;39307;52.870;13.660;2023-07-20T11:39:18;2.13;;;0.73;;
53411;SDS011;39307;52.870;13.660;2023-07-20T11:41:48;2.73;;;0.70;;
53411;SDS011;39307;52.870;13.660;2023-07-20T11:44:16;1.15;;;0.60;;
53411;SDS011;39307;52.870;13.660;2023-07-20T11:46:43;15.30;;;1.80;;
53411;SDS011;39307;52.870;13.660;2023-07-20T11:49:11;3.40;;;0.68;;
53411;SDS011;39307;52.870;13.660;2023-07-20T11:51:38;3.97;;;1.00;;
53411;SDS011;39307;52.870;13.660;2023-07-20T11:54:07;2.45;;;0.52;;
53411;SDS011;39307;52.870;13.660;2023-07-20T11:56:34;2.05;;;0.55;;
53411;SDS011;39307;52.870;13.660;2023-07-20T11:59:01;1.67;;;0.60;;
53411;SDS011;39307;52.870;13.660;2023-07-20T12:01:27;1.87;;;0.50;;
53411;SDS011;39307;52.870;13.660;2023-07-20T12:03:55;1.33;;;0.60;;
53411;SDS011;39307;52.870;13.660;2023-07-20T12:06:23;3.13;;;0.75;;
53411;SDS011;39307;52.870;13.660;2023-07-20T12:08:50;2.63;;;0.68;;
53411;SDS011;39307;52.870;13.660;2023-07-20T12:11:38;0.98;;;0.50;;
53411;SDS011;39307;52.870;13.660;2023-07-20T12:14:04;2.38;;;0.80;;
53411;SDS011;39307;52.870;13.660;2023-07-20T12:16:34;1.30;;;0.50;;
53411;SDS011;39307;52.870;13.660;2023-07-20T12:19:05;1.45;;;0.60;;
53411;SDS011;39307;52.870;13.660;2023-07-20T12:21:36;7.15;;;0.82;;
53411;SDS011;39307;52.870;13.660;2023-07-20T12:24:04;1.77;;;0.30;;
53411;SDS011;39307;52.870;13.660;2023-07-20T12:26:31;1.83;;;0.32;;
53411;SDS011;39307;52.870;13.660;2023-07-20T12:28:58;0.90;;;0.40;;
53411;SDS011;39307;52.870;13.660;2023-07-20T12:31:25;1.55;;;0.40;;
53411;SDS011;39307;52.870;13.660;2023-07-20T12:33:52;0.63;;;0.32;;
53411;SDS011;39307;52.870;13.660;2023-07-20T12:36:19;1.35;;;0.30;;
53411;SDS011;39307;52.870;13.660;2023-07-20T12:38:45;0.80;;;0.43;;
53411;SDS011;39307;52.870;13.660;2023-07-20T12:41:12;1.00;;;0.40;;
53411;SDS011;39307;52.870;13.660;2023-07-20T12:43:39;5.10;;;0.50;;
53411;SDS011;39307;52.870;13.660;2023-07-20T12:46:09;1.40;;;0.40;;
53411;SDS011;39307;52.870;13.660;2023-07-20T12:48:36;0.80;;;0.40;;
53411;SDS011;39307;52.870;13.660;2023-07-20T12:51:02;3.25;;;0.50;;
53411;SDS011;39307;52.870;13.660;2023-07-20T12:53:28;1.25;;;0.40;;
53411;SDS011;39307;52.870;13.660;2023-07-20T12:55:54;3.63;;;0.50;;
53411;SDS011;39307;52.870;13.660;2023-07-20T12:58:21;1.13;;;0.30;;
53411;SDS011;39307;52.870;13.660;2023-07-20T13:00:47;0.98;;;0.40;;
53411;SDS011;39307;52.870;13.660;2023-07-20T13:03:13;0.80;;;0.30;;
53411;SDS011;39307;52.870;13.660;2023-07-20T13:05:39;3.00;;;0.52;;
53411;SDS011;39307;52.870;13.660;2023-07-20T13:08:06;2.25;;;0.50;;
53411;SDS011;39307;52.870;13.660;2023-07-20T13:10:33;2.35;;;0.40;;
53411;SDS011;39307;52.870;13.660;2023-07-20T13:12:59;0.60;;;0.40;;
53411;SDS011;39307;52.870;13.660;2023-07-20T13:15:29;1.65;;;0.45;;
53411;SDS011;39307;52.870;13.660;2023-07-20T13:17:57;1.52;;;0.40;;
53411;SDS011;39307;52.870;13.660;2023-07-20T13:20:24;0.88;;;0.20;;
53411;SDS011;39307;52.870;13.660;2023-07-20T13:22:51;1.50;;;0.40;;
53411;SDS011;39307;52.870;13.660;2023-07-20T13:25:17;0.90;;;0.40;;
53411;SDS011;39307;52.870;13.660;2023-07-20T13:27:44;7.15;;;1.13;;
53411;SDS011;39307;52.870;13.660;2023-07-20T13:30:11;5.32;;;0.52;;
53411;SDS011;39307;52.870;13.660;2023-07-20T13:32:37;0.60;;;0.30;;
53411;SDS011;39307;52.870;13.660;2023-07-20T13:35:04;4.00;;;0.70;;
53411;SDS011;39307;52.870;13.660;2023-07-20T13:37:30;9.68;;;1.10;;
53411;SDS011;39307;52.870;13.660;2023-07-20T13:39:57;1.30;;;0.40;;
53411;SDS011;39307;52.870;13.660;2023-07-20T13:42:23;2.75;;;0.60;;
53411;SDS011;39307;52.870;13.660;2023-07-20T13:44:49;1.92;;;0.47;;
53411;SDS011;39307;52.870;13.660;2023-07-20T13:47:15;0.90;;;0.40;;
53411;SDS011;39307;52.870;13.660;2023-07-20T13:49:42;3.20;;;0.60;;
53411;SDS011;39307;52.870;13.660;2023-07-20T13:52:09;4.45;;;0.82;;
53411;SDS011;39307;52.870;13.660;2023-07-20T13:54:35;1.27;;;0.40;;
53411;SDS011;39307;52.870;13.660;2023-07-20T13:57:01;1.13;;;0.45;;
53411;SDS011;39307;52.870;13.660;2023-07-20T13:59:28;0.63;;;0.40;;
53411;SDS011;39307;52.870;13.660;2023-07-20T14:01:54;3.53;;;0.57;;
53411;SDS011;39307;52.870;13.660;2023-07-20T14:04:20;0.85;;;0.40;;
53411;SDS011;39307;52.870;13.660;2023-07-20T14:06:47;0.90;;;0.43;;
53411;SDS011;39307;52.870;13.660;2023-07-20T14:09:13;1.92;;;0.55;;
53411;SDS011;39307;52.870;13.660;2023-07-20T14:11:39;0.98;;;0.57;;
53411;SDS011;39307;52.870;13.660;2023-07-20T14:14:05;1.75;;;0.60;;
53411;SDS011;39307;52.870;13.660;2023-07-20T14:16:31;1.17;;;0.50;;
53411;SDS011;39307;52.870;13.660;2023-07-20T14:18:58;1.27;;;0.52;;
53411;SDS011;39307;52.870;13.660;2023-07-20T14:21:24;2.40;;;0.80;;
53411;SDS011;39307;52.870;13.660;2023-07-20T14:23:51;2.75;;;0.50;;
53411;SDS011;39307;52.870;13.660;2023-07-20T14:26:18;2.97;;;0.93;;
53411;SDS011;39307;52.870;13.660;2023-07-20T14:28:44;1.30;;;0.60;;
53411;SDS011;39307;52.870;13.660;2023-07-20T14:31:10;2.40;;;0.53;;
53411;SDS011;39307;52.870;13.660;2023-07-20T14:33:37;2.60;;;0.60;;
53411;SDS011;39307;52.870;13.660;2023-07-20T14:36:03;1.50;;;0.50;;
53411;SDS011;39307;52.870;13.660;2023-07-20T14:38:30;1.73;;;0.50;;
53411;SDS011;39307;52.870;13.660;2023-07-20T14:40:57;3.70;;;0.80;;
53411;SDS011;39307;52.870;13.660;2023-07-20T14:43:23;1.50;;;0.70;;
53411;SDS011;39307;52.870;13.660;2023-07-20T14:45:49;1.27;;;0.60;;
53411;SDS011;39307;52.870;13.660;2023-07-20T14:48:15;2.00;;;0.60;;
53411;SDS011;39307;52.870;13.660;2023-07-20T14:50:42;1.77;;;0.60;;